< < Back
Terminal Aerodrome Forecast


Current Version              Previous Versions:   1  2  3  4  5  6  7  8  9  

Terminal Aerodrome Forecast

405
FTUS42 KGSP 161100
TAFAVL
TAF
KAVL 161132Z 1612/1712 34014G22KT P6SM SKC
     FM161700 14011KT P6SM SKC
     FM170200 36006KT P6SM SCT250=

Latest METAR

894
SAUS70 KWBC 170100 RRE
MTRAVL
METAR KAVL 170054Z 16005KT 10SM CLR 08/M04 A3032 RMK AO2 SLP273
T00781044


USA.gov is the U.S. government's official web portal to all federal, state and local government web resources and services.